createdAt,value
2018-08-11T07:17:37.856Z,81.70
2018-08-11T07:27:40.942Z,78.20
2018-08-11T07:37:44.148Z,79.70
2018-08-11T07:47:48.210Z,77.40
2018-08-11T07:57:58.483Z,75.10
2018-08-11T08:08:01.631Z,75.00
2018-08-11T08:18:05.138Z,76.50
2018-08-11T08:28:07.917Z,71.20
2018-08-11T08:38:11.565Z,72.90
2018-08-11T08:48:14.579Z,73.40
2018-08-11T08:54:57.666Z,74.60
2018-08-11T09:02:28.788Z,90.40
2018-08-11T09:07:31.900Z,89.60
2018-08-11T09:12:34.868Z,89.90
2018-08-11T09:17:37.861Z,86.70
2018-08-11T09:22:40.847Z,84.70
2018-08-11T09:27:43.829Z,83.20
2018-08-11T09:32:46.889Z,82.10
2018-08-11T09:37:50.014Z,82.10
2018-08-11T09:42:52.988Z,81.00
2018-08-11T09:47:56.418Z,81.90
2018-08-11T09:53:00.708Z,83.20
2018-08-11T09:58:03.766Z,80.60
2018-08-11T10:03:06.744Z,80.10
2018-08-11T10:08:09.729Z,78.80
2018-08-11T10:13:12.721Z,77.80
2018-08-11T10:18:15.705Z,77.80
2018-08-11T10:23:18.689Z,78.80
2018-08-11T10:28:21.802Z,77.60
2018-08-11T10:33:24.797Z,77.90
2018-08-11T10:38:27.954Z,76.80
2018-08-11T10:43:31.114Z,75.80
2018-08-11T10:48:34.345Z,76.10
2018-08-11T10:53:37.352Z,76.80
2018-08-11T10:58:40.358Z,77.60
2018-08-11T11:03:43.339Z,77.40
2018-08-11T11:08:46.411Z,76.40
2018-08-11T11:13:49.453Z,76.90
2018-08-11T11:18:52.499Z,77.20
2018-08-11T11:23:55.545Z,76.70
2018-08-11T11:28:58.717Z,75.50
2018-08-11T11:34:01.894Z,74.60
2018-08-11T11:39:07.571Z,75.70
2018-08-11T11:44:10.561Z,76.00
2018-08-11T11:49:13.549Z,75.70
2018-08-11T11:54:16.724Z,76.20
2018-08-11T11:59:19.716Z,76.20
2018-08-11T12:04:22.702Z,76.50
2018-08-11T12:09:25.703Z,75.80
2018-08-11T12:14:28.864Z,75.30
2018-08-11T12:19:32.224Z,75.70
2018-08-11T12:24:35.146Z,73.60
2018-08-11T12:29:38.128Z,73.60
2018-08-11T12:34:41.110Z,72.90
2018-08-11T12:39:44.089Z,72.90
2018-08-11T12:44:47.111Z,73.60
2018-08-11T12:49:50.098Z,71.70
2018-08-11T12:54:53.082Z,72.50
2018-08-11T12:59:56.096Z,71.70
2018-08-11T13:04:59.218Z,73.20
2018-08-11T13:10:02.339Z,72.00
2018-08-11T13:15:05.750Z,72.00
2018-08-11T13:20:09.040Z,73.40
2018-08-11T13:25:12.013Z,73.60
2018-08-11T13:30:15.013Z,72.30
2018-08-11T13:35:18.034Z,72.30
2018-08-11T13:40:21.054Z,71.50
2018-08-11T13:45:24.050Z,69.50
2018-08-11T13:50:27.079Z,71.80
2018-08-11T13:55:30.268Z,73.10
2018-08-11T14:00:33.261Z,72.80
2018-08-11T14:05:36.240Z,71.20
2018-08-11T14:10:39.226Z,70.90
2018-08-11T14:15:42.213Z,72.00
2018-08-11T14:20:51.789Z,72.50
2018-08-11T14:25:54.823Z,71.30
2018-08-11T14:30:57.880Z,72.30
2018-08-11T14:36:00.952Z,72.00
2018-08-11T14:41:03.965Z,72.50
2018-08-11T14:46:07.274Z,70.70
2018-08-11T14:51:10.292Z,69.00
2018-08-11T14:56:13.314Z,65.50
2018-08-11T15:01:16.308Z,65.10
2018-08-11T15:06:19.305Z,63.10
2018-08-11T15:11:22.290Z,62.80
2018-08-11T15:16:25.377Z,62.00
2018-08-11T15:21:28.544Z,61.40
2018-08-11T15:26:31.547Z,61.00
2018-08-11T15:31:34.540Z,61.20
2018-08-11T15:36:38.537Z,60.70
2018-08-11T15:41:41.562Z,60.90
2018-08-11T15:46:44.589Z,60.80
2018-08-11T15:51:47.611Z,60.40
2018-08-11T15:56:50.592Z,60.30
2018-08-11T16:01:53.739Z,60.20
2018-08-11T16:06:56.752Z,60.00
2018-08-11T16:11:59.852Z,60.20
2018-08-11T16:17:02.864Z,60.10
2018-08-11T16:22:05.846Z,60.20
2018-08-11T16:27:08.842Z,60.20
2018-08-11T16:32:11.808Z,59.80
2018-08-11T16:37:14.798Z,59.50
2018-08-11T16:42:17.883Z,59.40
2018-08-11T16:47:20.858Z,59.30
2018-08-11T16:52:23.845Z,59.80
2018-08-11T16:57:26.819Z,60.00
2018-08-11T17:02:29.831Z,60.30
2018-08-11T17:07:32.823Z,60.60
2018-08-11T17:12:36.023Z,61.00
2018-08-11T17:17:39.014Z,60.40
2018-08-11T17:22:41.987Z,60.40
2018-08-11T17:27:44.975Z,60.90
2018-08-11T17:32:48.016Z,60.60
2018-08-11T17:37:50.992Z,61.50
2018-08-11T17:42:53.961Z,60.80
2018-08-11T17:47:56.954Z,60.90
2018-08-11T17:53:00.046Z,61.10
2018-08-11T17:58:03.179Z,60.90
2018-08-11T18:03:06.349Z,61.20
2018-08-11T18:08:09.323Z,60.30
2018-08-11T18:13:12.320Z,60.40
2018-08-11T18:18:15.293Z,59.90
2018-08-11T18:23:18.436Z,60.20
2018-08-11T18:28:21.584Z,59.40
2018-08-11T18:33:24.663Z,59.80
2018-08-11T18:38:27.646Z,59.70
2018-08-11T18:43:30.689Z,59.20
2018-08-11T18:48:33.593Z,59.50
2018-08-11T18:53:36.605Z,59.40
2018-08-11T18:58:39.712Z,59.60
2018-08-11T19:03:42.691Z,59.80
2018-08-11T19:08:45.686Z,60.20
2018-08-11T19:13:48.693Z,60.40
2018-08-11T19:18:51.695Z,60.90
2018-08-11T19:23:54.664Z,61.30
2018-08-11T19:28:57.637Z,61.40
2018-08-11T19:34:00.617Z,61.80
2018-08-11T19:39:05.728Z,61.70
2018-08-11T19:44:08.810Z,62.00
2018-08-11T19:49:11.779Z,62.00
2018-08-11T19:54:14.773Z,62.10
2018-08-11T19:59:17.834Z,62.00
2018-08-11T20:04:20.875Z,62.40
2018-08-11T20:09:23.946Z,62.70
2018-08-11T20:14:26.925Z,62.80
2018-08-11T20:19:29.999Z,63.00
2018-08-11T20:24:32.884Z,63.30
2018-08-11T20:29:36.456Z,63.40
2018-08-11T20:34:40.236Z,63.50
2018-08-11T20:39:43.225Z,63.60
2018-08-11T20:44:46.320Z,63.90
2018-08-11T20:49:49.363Z,63.80
2018-08-11T20:54:52.440Z,64.00
2018-08-11T20:59:55.420Z,64.30
2018-08-11T21:04:58.424Z,64.20
2018-08-11T21:10:01.404Z,64.40
2018-08-11T21:15:05.430Z,64.40
2018-08-11T21:20:13.791Z,64.60
2018-08-11T21:25:16.890Z,64.60
2018-08-11T21:30:19.921Z,64.60
2018-08-11T21:35:22.921Z,64.90
2018-08-11T21:40:25.972Z,65.00
2018-08-11T21:45:28.953Z,65.00
2018-08-11T21:50:31.921Z,65.00
2018-08-11T21:55:34.904Z,65.30
2018-08-11T22:00:38.354Z,65.90
2018-08-11T22:05:41.317Z,65.30
2018-08-11T22:10:44.302Z,65.80
2018-08-11T22:15:47.366Z,65.30
2018-08-11T22:20:50.551Z,65.90
2018-08-11T22:25:53.621Z,65.80
2018-08-11T22:30:56.689Z,65.80
2018-08-11T22:35:59.690Z,66.00
2018-08-11T22:41:02.676Z,66.50
2018-08-11T22:46:05.781Z,66.00
2018-08-11T22:51:08.817Z,66.20
2018-08-11T22:56:11.796Z,66.10
2018-08-11T23:01:14.773Z,66.20
2018-08-11T23:06:17.914Z,66.00
2018-08-11T23:11:21.077Z,66.20
2018-08-11T23:16:24.270Z,66.30
2018-08-11T23:21:27.258Z,66.50
2018-08-11T23:26:30.229Z,66.50
2018-08-11T23:31:33.209Z,66.30
2018-08-11T23:36:36.184Z,66.50
2018-08-11T23:41:39.685Z,66.50
2018-08-11T23:46:42.675Z,66.50
2018-08-11T23:51:45.637Z,67.40
2018-08-11T23:56:48.684Z,66.60
